Time;durP1;ratioP1;P1;durP2;ratioP2;P2;SDS_P1;SDS_P2;PMS_P1;PMS_P2;Temp;Humidity;BMP_temperature;BMP_pressure;BME280_temperature;BME280_humidity;BME280_pressure;Samples;Min_cycle;Max_cycle;Signal;HPM_P1;HPM_P2
2022/08/19 00:02:02;;;;;;;;;;;;;;;22.02;30.18;97481.22;4923753;29;1386;-79
2022/08/19 00:04:32;;;;;;;;;;;;;;;22.20;29.53;97489.88;4900904;29;1989;-78
2022/08/19 00:06:57;;;;;;;;;;;;;;;22.09;29.64;97483.81;4882621;29;967;-79
2022/08/19 00:09:23;;;;;;;;;;;;;;;22.29;29.50;97484.28;4827090;29;1022;-78
2022/08/19 00:11:49;;;;;;;;;;;;;;;22.28;29.15;97496.88;4827206;29;1008;-79
2022/08/19 00:14:15;;;;;;;;;;;;;;;22.40;29.12;97497.28;4826824;29;1694;-78
2022/08/19 00:16:41;;;;;;;;;;;;;;;22.34;29.08;97500.69;4876154;29;1001;-78
2022/08/19 00:19:06;;;;;;;;;;;;;;;22.05;29.78;97500.13;4882441;29;1021;-79
2022/08/19 00:21:32;;;;;;;;;;;;;;;22.18;29.67;97500.91;4882231;29;1141;-78
2022/08/19 00:23:58;;;;;;;;;;;;;;;22.30;29.36;97494.38;4881781;29;2128;-79
2022/08/19 00:26:24;;;;;;;;;;;;;;;22.41;29.12;97488.28;4882754;29;983;-79
2022/08/19 00:28:49;;;;;;;;;;;;;;;22.35;29.42;97502.28;4882635;29;920;-78
2022/08/19 00:31:16;;;;;;;;;;;;;;;22.34;29.67;97495.03;4897646;29;936;-78
2022/08/19 00:33:41;;;;;;;;;;;;;;;22.31;29.61;97489.47;4882214;29;1570;-78
2022/08/19 00:36:07;;;;;;;;;;;;;;;22.23;29.81;97488.97;4882465;29;991;-79
2022/08/19 00:38:32;;;;;;;;;;;;;;;22.14;29.69;97480.41;4909919;29;947;-79
2022/08/19 00:40:58;;;;;;;;;;;;;;;22.29;29.52;97486.34;4919782;29;877;-78
2022/08/19 00:43:25;;;;;;;;;;;;;;;21.97;30.01;97493.16;4928049;29;1989;-79
2022/08/19 00:45:51;;;;;;;;;;;;;;;22.05;30.43;97488.81;4900398;29;1153;-79
2022/08/19 00:48:17;;;;;;;;;;;;;;;22.01;30.05;97493.81;4929179;29;1016;-78
2022/08/19 00:50:42;;;;;;;;;;;;;;;22.10;29.95;97496.72;4900472;29;1113;-78
2022/08/19 00:53:09;;;;;;;;;;;;;;;22.15;29.88;97498.97;4900510;29;2050;-77
2022/08/19 00:55:34;;;;;;;;;;;;;;;21.92;30.57;97485.25;4919824;29;908;-78
2022/08/19 00:58:06;;;;;;;;;;;;;;;22.02;30.17;97496.19;4919314;29;1016;-78
2022/08/19 01:00:36;;;;;;;;;;;;;;;22.19;29.98;97493.97;4903514;29;960;-79
2022/08/19 01:03:01;;;;;;;;;;;;;;;22.23;29.96;97491.81;4887335;29;1980;-78
2022/08/19 01:05:28;;;;;;;;;;;;;;;22.29;29.86;97498.47;4900130;29;986;-78
2022/08/19 01:07:54;;;;;;;;;;;;;;;22.32;29.83;97491.84;4915767;29;965;-79
2022/08/19 01:10:22;;;;;;;;;;;;;;;22.44;29.64;97486.59;4900207;29;1013;-78
2022/08/19 01:12:47;;;;;;;;;;;;;;;22.35;29.97;97492.97;4914384;29;1836;-79
2022/08/19 01:15:14;;;;;;;;;;;;;;;22.05;30.49;97480.31;4918879;29;1056;-78
2022/08/19 01:17:39;;;;;;;;;;;;;;;22.08;30.21;97485.06;4903281;29;1511;-79
2022/08/19 01:20:05;;;;;;;;;;;;;;;22.21;29.84;97482.97;4918960;29;1044;-79
2022/08/19 01:22:44;;;;;;;;;;;;;;;22.14;30.22;97480.41;4883737;29;1911;-78
2022/08/19 01:25:10;;;;;;;;;;;;;;;22.02;30.42;97479.19;4880939;29;951;-79
2022/08/19 01:27:39;;;;;;;;;;;;;;;22.08;30.16;97487.88;4842805;29;978;-79
2022/08/19 01:30:05;;;;;;;;;;;;;;;22.26;30.01;97482.38;4825856;29;990;-79
2022/08/19 01:32:31;;;;;;;;;;;;;;;22.08;29.97;97493.56;4798508;29;1907;-79
2022/08/19 01:34:56;;;;;;;;;;;;;;;22.01;30.18;97491.75;4807828;29;950;-79
2022/08/19 01:37:21;;;;;;;;;;;;;;;22.31;29.87;97490.28;4807809;29;1073;-78
2022/08/19 01:39:47;;;;;;;;;;;;;;;22.30;29.78;97491.53;4823512;29;970;-79
2022/08/19 01:42:13;;;;;;;;;;;;;;;22.14;30.09;97485.28;4825295;29;1808;-79
2022/08/19 01:44:39;;;;;;;;;;;;;;;22.18;30.03;97483.91;4825601;29;1911;-78
2022/08/19 01:47:06;;;;;;;;;;;;;;;21.87;30.44;97483.00;4789172;29;1056;-78
2022/08/19 01:49:31;;;;;;;;;;;;;;;22.39;29.76;97481.53;4789369;29;928;-78
2022/08/19 01:51:57;;;;;;;;;;;;;;;22.05;30.10;97478.25;4788495;29;1780;-79
2022/08/19 01:54:23;;;;;;;;;;;;;;;21.97;30.28;97476.94;4804317;29;1611;-78
2022/08/19 01:56:48;;;;;;;;;;;;;;;21.81;30.39;97475.09;4834778;29;987;-78
2022/08/19 01:59:14;;;;;;;;;;;;;;;22.12;29.93;97477.22;4900717;29;922;-78
2022/08/19 02:01:40;;;;;;;;;;;;;;;22.10;30.28;97468.38;4912538;29;2016;-79
2022/08/19 02:04:06;;;;;;;;;;;;;;;22.10;29.96;97474.03;4956362;29;1981;-78
2022/08/19 02:06:32;;;;;;;;;;;;;;;22.06;30.19;97473.38;4956583;29;978;-79
2022/08/19 02:08:57;;;;;;;;;;;;;;;22.03;30.06;97474.31;4956570;29;964;-78
2022/08/19 02:11:27;;;;;;;;;;;;;;;22.08;29.90;97470.88;4958214;28;1631;-79
2022/08/19 02:13:53;;;;;;;;;;;;;;;22.03;30.04;97462.97;4935466;29;1547;-79
2022/08/19 02:16:18;;;;;;;;;;;;;;;22.06;29.96;97477.00;4952956;28;983;-78
2022/08/19 02:18:44;;;;;;;;;;;;;;;22.23;29.81;97471.19;4966931;28;974;-78
2022/08/19 02:21:10;;;;;;;;;;;;;;;22.23;29.74;97465.53;4996086;28;1886;-79
2022/08/19 02:23:36;;;;;;;;;;;;;;;22.31;29.75;97464.78;4996750;28;1902;-78
2022/08/19 02:26:01;;;;;;;;;;;;;;;22.23;29.49;97466.31;4997013;28;854;-77
2022/08/19 02:28:27;;;;;;;;;;;;;;;22.18;29.63;97457.63;4996932;28;977;-78
2022/08/19 02:30:52;;;;;;;;;;;;;;;22.38;29.23;97465.75;4988494;28;1658;-78
2022/08/19 02:33:17;;;;;;;;;;;;;;;22.21;29.63;97463.13;4977299;28;1102;-79
2022/08/19 02:35:46;;;;;;;;;;;;;;;22.24;29.62;97462.22;4977218;28;933;-79
2022/08/19 02:38:27;;;;;;;;;;;;;;;21.97;29.62;97459.94;4977151;28;903;-78
2022/08/19 02:40:54;;;;;;;;;;;;;;;21.93;29.68;97458.50;4980384;28;1582;-79
2022/08/19 02:43:22;;;;;;;;;;;;;;;22.19;29.26;97471.31;4976400;28;1910;-79
2022/08/19 02:45:48;;;;;;;;;;;;;;;22.30;29.00;97468.84;4975206;28;944;-78
2022/08/19 02:48:17;;;;;;;;;;;;;;;22.26;29.20;97462.53;4958936;28;921;-78
2022/08/19 02:50:42;;;;;;;;;;;;;;;22.18;29.29;97460.44;4942910;28;1819;-78
2022/08/19 02:53:08;;;;;;;;;;;;;;;22.13;29.53;97467.50;4920549;29;1303;-78
2022/08/19 02:55:33;;;;;;;;;;;;;;;22.31;29.12;97456.25;4936841;29;1012;-79
2022/08/19 02:57:59;;;;;;;;;;;;;;;22.24;29.30;97456.53;4936462;29;1046;-78
2022/08/19 03:00:26;;;;;;;;;;;;;;;22.21;29.64;97457.47;4935685;29;1990;-78
2022/08/19 03:02:51;;;;;;;;;;;;;;;21.90;30.12;97453.75;4938669;29;1986;-78
2022/08/19 03:05:17;;;;;;;;;;;;;;;22.16;29.45;97460.09;4940175;29;1819;-78
2022/08/19 03:07:42;;;;;;;;;;;;;;;21.98;29.71;97455.88;4940374;29;946;-78
2022/08/19 03:10:08;;;;;;;;;;;;;;;22.28;29.06;97467.75;4940062;29;1693;-78
2022/08/19 03:12:37;;;;;;;;;;;;;;;22.22;29.12;97475.25;4940271;29;1025;-77
2022/08/19 03:15:03;;;;;;;;;;;;;;;21.90;29.54;97470.75;4940475;29;947;-77
2022/08/19 03:17:28;;;;;;;;;;;;;;;22.13;29.55;97473.16;4925144;29;972;-79
2022/08/19 03:19:54;;;;;;;;;;;;;;;22.21;29.39;97485.00;4921212;29;963;-78
2022/08/19 03:22:19;;;;;;;;;;;;;;;22.05;29.45;97478.25;4939870;29;1956;-78
2022/08/19 03:24:45;;;;;;;;;;;;;;;22.21;29.04;97480.13;4987391;28;1906;-78
2022/08/19 03:27:10;;;;;;;;;;;;;;;22.18;29.14;97481.06;4997939;28;988;-78
2022/08/19 03:29:37;;;;;;;;;;;;;;;22.21;29.22;97480.13;4998215;28;1099;-78
2022/08/19 03:32:03;;;;;;;;;;;;;;;22.03;29.75;97486.44;4996338;28;1501;-78
2022/08/19 03:34:29;;;;;;;;;;;;;;;22.11;29.70;97481.31;4997662;28;950;-78
2022/08/19 03:36:58;;;;;;;;;;;;;;;22.02;29.69;97484.03;4997869;28;993;-78
2022/08/19 03:39:24;;;;;;;;;;;;;;;22.19;29.74;97488.31;4998172;28;938;-78
2022/08/19 03:41:49;;;;;;;;;;;;;;;21.96;29.92;97491.56;4999714;28;1638;-79
2022/08/19 03:44:24;;;;;;;;;;;;;;;21.84;30.13;97490.38;4982225;28;1993;-78
2022/08/19 03:46:50;;;;;;;;;;;;;;;22.04;29.63;97501.38;5000164;28;943;-79
2022/08/19 03:49:16;;;;;;;;;;;;;;;22.06;29.51;97499.66;4977741;28;946;-79
2022/08/19 03:51:41;;;;;;;;;;;;;;;21.90;29.98;97505.50;4978288;28;1036;-78
2022/08/19 03:54:07;;;;;;;;;;;;;;;22.25;29.49;97511.97;4939548;29;1031;-78
2022/08/19 03:56:37;;;;;;;;;;;;;;;22.22;29.57;97514.91;4922795;29;1836;-78
2022/08/19 03:59:02;;;;;;;;;;;;;;;22.26;29.69;97516.38;4907877;29;1019;-78
2022/08/19 04:01:28;;;;;;;;;;;;;;;22.03;29.68;97514.75;4939467;29;1018;-78
2022/08/19 04:03:53;;;;;;;;;;;;;;;22.08;29.73;97510.56;4937852;29;1971;-78
2022/08/19 04:06:21;;;;;;;;;;;;;;;22.06;29.68;97513.03;4920277;29;1060;-78
2022/08/19 04:08:47;;;;;;;;;;;;;;;21.98;30.13;97511.72;4864284;29;984;-78
2022/08/19 04:11:14;;;;;;;;;;;;;;;22.05;29.97;97517.13;4864399;29;894;-78
2022/08/19 04:13:40;;;;;;;;;;;;;;;22.22;29.72;97520.59;4863751;29;1136;-78
2022/08/19 04:16:05;;;;;;;;;;;;;;;22.15;29.84;97521.66;4845499;29;999;-78
2022/08/19 04:18:32;;;;;;;;;;;;;;;22.29;29.41;97523.97;4860895;29;1036;-78
2022/08/19 04:20:58;;;;;;;;;;;;;;;22.16;29.57;97525.28;4845805;29;1041;-78
2022/08/19 04:23:23;;;;;;;;;;;;;;;22.27;29.53;97526.47;4808723;29;1904;-78
2022/08/19 04:25:48;;;;;;;;;;;;;;;22.43;29.10;97525.47;4809203;29;1134;-78
2022/08/19 04:28:14;;;;;;;;;;;;;;;22.15;29.62;97532.97;4790890;30;1003;-78
2022/08/19 04:30:43;;;;;;;;;;;;;;;22.12;29.75;97531.06;4797807;29;949;-78
2022/08/19 04:33:09;;;;;;;;;;;;;;;22.16;29.88;97528.91;4830120;29;939;-78
2022/08/19 04:35:38;;;;;;;;;;;;;;;22.24;29.59;97535.91;4829592;29;1218;-78
2022/08/19 04:38:04;;;;;;;;;;;;;;;22.26;29.83;97539.06;4808717;29;1023;-78
2022/08/19 04:43:14;;;;;;;;;;;;;;;21.97;30.36;97530.78;4808471;29;1912;-78
2022/08/19 04:45:40;;;;;;;;;;;;;;;21.98;30.53;97540.06;4808686;29;962;-78
2022/08/19 04:48:05;;;;;;;;;;;;;;;22.11;30.38;97540.81;4808476;29;1050;-78
2022/08/19 04:50:31;;;;;;;;;;;;;;;22.17;30.06;97547.47;4808467;29;991;-78
2022/08/19 04:52:56;;;;;;;;;;;;;;;22.24;29.91;97547.22;4808323;29;1308;-79
2022/08/19 04:55:22;;;;;;;;;;;;;;;22.19;30.17;97545.00;4814504;29;963;-79
2022/08/19 04:57:48;;;;;;;;;;;;;;;22.06;30.29;97541.38;4844924;29;944;-78
2022/08/19 05:00:14;;;;;;;;;;;;;;;22.15;30.21;97543.53;4878345;29;975;-78
2022/08/19 05:02:39;;;;;;;;;;;;;;;22.20;30.16;97552.22;4882054;29;1986;-77
2022/08/19 05:05:06;;;;;;;;;;;;;;;22.21;30.30;97547.34;4882158;29;923;-78
2022/08/19 05:07:31;;;;;;;;;;;;;;;22.53;30.04;97557.50;4881908;29;992;-78
2022/08/19 05:09:57;;;;;;;;;;;;;;;22.28;29.97;97547.09;4930854;29;955;-77
2022/08/19 05:12:22;;;;;;;;;;;;;;;22.27;30.18;97549.13;4938158;29;981;-78
2022/08/19 05:14:49;;;;;;;;;;;;;;;22.32;30.09;97554.22;4938364;29;1003;-78
2022/08/19 05:17:14;;;;;;;;;;;;;;;22.12;30.79;97555.78;4918839;29;888;-78
2022/08/19 05:22:37;;;;;;;;;;;;;;;21.97;31.21;97555.47;4918863;29;979;-78
2022/08/19 05:25:08;;;;;;;;;;;;;;;22.14;30.83;97551.25;4918709;29;900;-78
2022/08/19 05:27:33;;;;;;;;;;;;;;;22.16;30.88;97556.44;4918682;29;907;-78
2022/08/19 05:29:59;;;;;;;;;;;;;;;22.08;31.33;97538.88;4919014;29;1155;-78
2022/08/19 05:32:24;;;;;;;;;;;;;;;22.30;30.86;97553.88;4918825;29;968;-77
2022/08/19 05:34:50;;;;;;;;;;;;;;;22.35;31.06;97547.63;4918795;29;983;-78
2022/08/19 05:37:16;;;;;;;;;;;;;;;22.21;31.13;97548.13;4918695;29;954;-78
2022/08/19 05:39:42;;;;;;;;;;;;;;;22.48;30.65;97553.22;4956737;29;960;-78
2022/08/19 05:42:08;;;;;;;;;;;;;;;22.41;30.60;97547.03;4941094;29;1049;-78
2022/08/19 05:44:34;;;;;;;;;;;;;;;22.40;31.00;97548.28;4956682;29;1906;-77
2022/08/19 05:47:00;;;;;;;;;;;;;;;22.33;30.68;97544.47;4956769;29;946;-77
2022/08/19 05:49:26;;;;;;;;;;;;;;;22.24;31.08;97538.72;4978719;28;884;-77
2022/08/19 05:51:52;;;;;;;;;;;;;;;22.27;31.01;97539.84;4978269;28;937;-78
2022/08/19 05:54:18;;;;;;;;;;;;;;;22.01;31.40;97539.13;4978358;28;922;-79
2022/08/19 05:56:43;;;;;;;;;;;;;;;22.03;31.71;97536.66;4937543;29;889;-77
2022/08/19 05:59:10;;;;;;;;;;;;;;;22.35;30.99;97535.50;4937851;29;1082;-78
2022/08/19 06:01:36;;;;;;;;;;;;;;;22.38;31.17;97540.22;4937605;29;944;-77
2022/08/19 06:04:02;;;;;;;;;;;;;;;22.53;31.04;97543.31;4937477;29;1962;-78
2022/08/19 06:06:27;;;;;;;;;;;;;;;22.55;31.12;97552.19;4937301;29;926;-78
2022/08/19 06:08:53;;;;;;;;;;;;;;;22.48;31.28;97543.91;4937215;29;993;-77
2022/08/19 06:11:20;;;;;;;;;;;;;;;22.30;31.23;97539.72;4937268;29;986;-78
2022/08/19 06:13:47;;;;;;;;;;;;;;;22.21;31.79;97533.19;4921428;29;940;-78
2022/08/19 06:16:20;;;;;;;;;;;;;;;22.18;31.62;97537.75;4937124;29;1056;-77
2022/08/19 06:18:46;;;;;;;;;;;;;;;22.35;31.61;97539.13;4922346;29;928;-78
2022/08/19 06:21:11;;;;;;;;;;;;;;;22.46;31.49;97535.09;4937322;29;1041;-78
2022/08/19 06:23:37;;;;;;;;;;;;;;;22.56;31.24;97533.91;4936927;29;1910;-77
2022/08/19 06:26:02;;;;;;;;;;;;;;;22.56;30.92;97528.25;4937165;29;977;-78
2022/08/19 06:28:27;;;;;;;;;;;;;;;22.48;31.28;97522.03;4970542;28;1063;-78
2022/08/19 06:30:53;;;;;;;;;;;;;;;22.38;31.34;97522.44;4977558;28;955;-77
2022/08/19 06:33:18;;;;;;;;;;;;;;;22.52;31.48;97521.91;4978112;28;863;-78
2022/08/19 06:35:44;;;;;;;;;;;;;;;22.36;31.57;97523.69;4977483;28;935;-78
2022/08/19 06:38:09;;;;;;;;;;;;;;;22.33;31.85;97521.81;4977062;28;918;-78
2022/08/19 06:40:36;;;;;;;;;;;;;;;22.72;31.00;97519.50;4977720;28;850;-78
2022/08/19 06:43:02;;;;;;;;;;;;;;;22.67;31.21;97528.63;4977498;28;2043;-78
2022/08/19 06:45:27;;;;;;;;;;;;;;;22.58;31.09;97528.56;4936663;29;926;-78
2022/08/19 06:47:55;;;;;;;;;;;;;;;22.40;31.46;97531.28;4921188;29;1127;-78
2022/08/19 06:50:22;;;;;;;;;;;;;;;22.53;31.12;97540.50;4879859;29;906;-78
2022/08/19 06:52:47;;;;;;;;;;;;;;;22.59;31.15;97527.31;4880286;29;881;-78
2022/08/19 06:55:13;;;;;;;;;;;;;;;22.49;31.61;97540.66;4861864;29;952;-77
2022/08/19 06:57:38;;;;;;;;;;;;;;;22.34;31.62;97534.72;4861996;29;939;-77
2022/08/19 07:00:05;;;;;;;;;;;;;;;22.50;31.49;97532.94;4861507;29;896;-77
2022/08/19 07:02:30;;;;;;;;;;;;;;;22.48;31.46;97538.25;4842962;29;968;-78
2022/08/19 07:04:57;;;;;;;;;;;;;;;22.41;31.52;97532.88;4843004;29;1919;-77
2022/08/19 07:07:23;;;;;;;;;;;;;;;22.57;31.60;97541.16;4843006;29;927;-77
2022/08/19 07:09:49;;;;;;;;;;;;;;;22.65;31.32;97536.81;4842696;29;1084;-78
2022/08/19 07:12:15;;;;;;;;;;;;;;;22.53;31.42;97529.16;4842956;29;963;-77
2022/08/19 07:14:40;;;;;;;;;;;;;;;22.27;32.00;97528.50;4812400;29;1002;-77
2022/08/19 07:17:07;;;;;;;;;;;;;;;22.53;31.86;97523.47;4816466;29;1022;-78
2022/08/19 07:19:32;;;;;;;;;;;;;;;22.38;31.97;97523.22;4809247;29;931;-78
2022/08/19 07:22:00;;;;;;;;;;;;;;;22.32;32.09;97517.34;4852303;29;988;-78
2022/08/19 07:24:26;;;;;;;;;;;;;;;22.53;31.52;97515.75;4861306;29;1907;-77
2022/08/19 07:26:52;;;;;;;;;;;;;;;22.70;31.45;97515.56;4861373;29;921;-78
2022/08/19 07:29:18;;;;;;;;;;;;;;;22.76;31.30;97505.97;4861235;29;913;-77
2022/08/19 07:31:44;;;;;;;;;;;;;;;22.51;32.09;97520.31;4861207;29;976;-78
2022/08/19 07:34:11;;;;;;;;;;;;;;;22.62;32.02;97515.03;4861002;29;954;-78
2022/08/19 07:36:37;;;;;;;;;;;;;;;22.67;31.97;97522.16;4842582;29;928;-78
2022/08/19 07:39:07;;;;;;;;;;;;;;;22.42;32.36;97523.09;4829355;29;1503;-78
2022/08/19 07:41:32;;;;;;;;;;;;;;;22.36;32.42;97537.88;4861160;29;1016;-77
2022/08/19 07:44:03;;;;;;;;;;;;;;;22.68;31.60;97530.19;4860770;29;1903;-78
2022/08/19 07:46:32;;;;;;;;;;;;;;;22.52;32.27;97533.25;4845952;29;1006;-78
2022/08/19 07:48:57;;;;;;;;;;;;;;;22.29;32.30;97523.97;4861680;29;921;-78
2022/08/19 07:51:22;;;;;;;;;;;;;;;22.38;32.21;97528.09;4864511;29;942;-78
2022/08/19 07:53:49;;;;;;;;;;;;;;;22.54;31.66;97519.41;4868162;29;964;-78
2022/08/19 07:56:15;;;;;;;;;;;;;;;22.62;31.83;97529.22;4864275;29;958;-77
2022/08/19 07:58:41;;;;;;;;;;;;;;;22.58;31.64;97525.72;4845476;29;975;-78
2022/08/19 08:01:07;;;;;;;;;;;;;;;22.70;31.50;97527.69;4845946;29;978;-78
2022/08/19 08:09:20;;;;;;;;;;;;;;;22.56;31.53;97514.06;4845526;29;965;-78
2022/08/19 08:11:48;;;;;;;;;;;;;;;22.67;31.92;97514.44;4832948;29;976;-78
2022/08/19 08:14:15;;;;;;;;;;;;;;;22.70;31.75;97522.03;4874668;29;948;-78
2022/08/19 08:16:41;;;;;;;;;;;;;;;22.73;31.37;97515.41;4904771;29;932;-77
2022/08/19 08:19:07;;;;;;;;;;;;;;;22.38;32.08;97511.09;4904240;29;980;-77
2022/08/19 08:21:33;;;;;;;;;;;;;;;22.58;31.86;97509.50;4920132;29;950;-78
2022/08/19 08:23:58;;;;;;;;;;;;;;;22.57;31.89;97518.47;4919795;29;1911;-77
2022/08/19 08:26:24;;;;;;;;;;;;;;;22.69;31.96;97520.44;4923167;29;961;-77
2022/08/19 08:28:50;;;;;;;;;;;;;;;22.58;32.02;97522.88;4944983;28;997;-77
2022/08/19 08:31:16;;;;;;;;;;;;;;;22.52;31.80;97516.22;4938647;29;954;-76
2022/08/19 08:33:42;;;;;;;;;;;;;;;22.51;31.78;97514.66;4938680;29;1115;-77
2022/08/19 08:36:07;;;;;;;;;;;;;;;22.82;31.27;97512.63;4939154;29;898;-77
2022/08/19 08:38:33;;;;;;;;;;;;;;;22.75;31.59;97512.91;4938712;29;972;-77
2022/08/19 08:41:06;;;;;;;;;;;;;;;22.77;31.30;97501.88;4938736;29;986;-77
2022/08/19 08:43:32;;;;;;;;;;;;;;;22.68;31.71;97513.19;4900594;29;1990;-77
2022/08/19 08:46:02;;;;;;;;;;;;;;;22.65;31.71;97514.13;4885059;29;934;-77
2022/08/19 08:48:46;;;;;;;;;;;;;;;22.71;31.61;97506.59;4885387;29;1037;-77
2022/08/19 08:51:15;;;;;;;;;;;;;;;22.70;31.79;97505.00;4900926;29;979;-77
2022/08/19 08:53:40;;;;;;;;;;;;;;;22.69;31.96;97514.78;4885095;29;1053;-77
2022/08/19 08:56:06;;;;;;;;;;;;;;;22.74;31.76;97505.66;4884936;29;971;-77
2022/08/19 08:58:41;;;;;;;;;;;;;;;22.66;31.81;97510.03;4862904;29;1203;-76
2022/08/19 09:01:07;;;;;;;;;;;;;;;22.73;31.62;97509.75;4848743;29;957;-77
2022/08/19 09:03:33;;;;;;;;;;;;;;;22.75;31.86;97510.09;4881651;29;1911;-78
2022/08/19 09:06:00;;;;;;;;;;;;;;;22.64;31.97;97518.22;4866055;29;1004;-77
2022/08/19 09:08:28;;;;;;;;;;;;;;;22.75;31.83;97506.47;4881925;29;957;-77
2022/08/19 09:10:54;;;;;;;;;;;;;;;22.69;31.71;97514.78;4881906;29;957;-78
2022/08/19 09:13:42;;;;;;;;;;;;;;;22.88;31.68;97513.63;4882265;29;933;-77
2022/08/19 09:16:07;;;;;;;;;;;;;;;22.68;32.21;97524.53;4903263;29;997;-77
2022/08/19 09:18:40;;;;;;;;;;;;;;;22.49;32.54;97517.19;4919178;29;996;-77
2022/08/19 09:21:06;;;;;;;;;;;;;;;22.69;31.82;97520.44;4930271;29;1040;-77
2022/08/19 09:23:31;;;;;;;;;;;;;;;22.75;31.66;97529.94;4922037;29;1978;-78
2022/08/19 09:25:57;;;;;;;;;;;;;;;22.83;31.95;97525.56;4937928;29;990;-77
2022/08/19 09:28:22;;;;;;;;;;;;;;;22.63;32.35;97525.91;4938120;29;943;-77
2022/08/19 09:30:48;;;;;;;;;;;;;;;22.68;31.73;97535.88;4937895;29;1007;-77
2022/08/19 09:33:13;;;;;;;;;;;;;;;22.78;31.50;97534.66;4937904;29;1004;-77
2022/08/19 09:35:38;;;;;;;;;;;;;;;22.75;31.77;97529.16;4953115;28;1030;-76
2022/08/19 09:38:04;;;;;;;;;;;;;;;22.70;31.81;97527.69;4978309;28;1105;-78
2022/08/19 09:40:29;;;;;;;;;;;;;;;22.39;32.27;97533.34;4978521;28;921;-77
2022/08/19 09:42:56;;;;;;;;;;;;;;;22.50;32.20;97530.09;4978520;28;1975;-78
2022/08/19 09:45:22;;;;;;;;;;;;;;;22.64;32.21;97526.72;4978073;28;861;-77
2022/08/19 09:47:50;;;;;;;;;;;;;;;22.63;32.35;97533.63;4961183;28;963;-77
2022/08/19 09:50:16;;;;;;;;;;;;;;;22.55;32.20;97535.16;4961136;28;888;-77
2022/08/19 09:52:42;;;;;;;;;;;;;;;22.65;31.96;97536.81;4978163;28;947;-77
2022/08/19 09:55:08;;;;;;;;;;;;;;;22.80;31.83;97520.81;4990935;28;1505;-77
2022/08/19 09:57:33;;;;;;;;;;;;;;;22.51;31.94;97526.78;4997507;28;1463;-77
2022/08/19 09:59:58;;;;;;;;;;;;;;;22.79;31.79;97535.44;4997283;28;1467;-78
2022/08/19 10:02:24;;;;;;;;;;;;;;;22.68;31.88;97523.72;4997484;28;1538;-77
2022/08/19 10:07:35;;;;;;;;;;;;;;;22.81;31.43;97535.78;4992310;28;1523;-78
2022/08/19 10:10:00;;;;;;;;;;;;;;;22.84;31.66;97529.97;4996952;28;1530;-78
2022/08/19 10:12:26;;;;;;;;;;;;;;;22.99;31.28;97529.44;4988286;28;1549;-77
2022/08/19 10:14:53;;;;;;;;;;;;;;;22.94;31.31;97532.88;4996247;28;1961;-78
2022/08/19 10:17:18;;;;;;;;;;;;;;;22.95;31.55;97534.44;4997055;28;1478;-78
2022/08/19 10:19:44;;;;;;;;;;;;;;;22.79;31.40;97536.25;4966105;28;1514;-77
2022/08/19 10:22:14;;;;;;;;;;;;;;;22.69;31.52;97537.47;4947908;28;1558;-78
2022/08/19 10:24:39;;;;;;;;;;;;;;;22.76;31.37;97542.84;4968864;28;1938;-77
2022/08/19 10:27:05;;;;;;;;;;;;;;;22.69;31.73;97539.50;4970168;28;1514;-79
2022/08/19 10:29:31;;;;;;;;;;;;;;;22.93;30.96;97539.81;4969700;28;1670;-79
2022/08/19 10:31:57;;;;;;;;;;;;;;;22.83;31.45;97542.56;4953722;28;1559;-78
2022/08/19 10:34:23;;;;;;;;;;;;;;;22.84;31.30;97527.13;4964023;28;1661;-78
2022/08/19 10:36:49;;;;;;;;;;;;;;;22.94;31.17;97532.88;4962483;28;1528;-78
2022/08/19 10:39:14;;;;;;;;;;;;;;;22.92;31.31;97538.25;4946079;28;1593;-79
2022/08/19 10:41:43;;;;;;;;;;;;;;;22.87;31.40;97531.88;4964042;28;1536;-77
2022/08/19 10:44:09;;;;;;;;;;;;;;;22.87;31.45;97537.56;4960554;28;1991;-77
2022/08/19 10:46:40;;;;;;;;;;;;;;;22.92;31.30;97541.06;4961432;28;1516;-78
2022/08/19 10:49:06;;;;;;;;;;;;;;;22.85;31.28;97542.91;4948133;28;1705;-77
2022/08/19 10:54:15;;;;;;;;;;;;;;;22.55;31.63;97549.34;4995528;28;1407;-77
2022/08/19 10:56:53;;;;;;;;;;;;;;;22.90;30.92;97540.72;4993717;28;1958;-78
2022/08/19 10:59:21;;;;;;;;;;;;;;;22.92;31.00;97541.06;4996513;28;1318;-78
2022/08/19 11:01:47;;;;;;;;;;;;;;;22.76;31.25;97537.19;4996616;28;1571;-78
2022/08/19 11:04:17;;;;;;;;;;;;;;;22.51;31.76;97538.13;4985646;28;1927;-78
2022/08/19 11:06:43;;;;;;;;;;;;;;;22.58;31.44;97549.19;4987818;28;1601;-78
2022/08/19 11:09:08;;;;;;;;;;;;;;;22.74;31.40;97539.69;4934995;29;1489;-79
2022/08/19 11:11:39;;;;;;;;;;;;;;;22.92;31.11;97543.91;4942228;29;1533;-77
2022/08/19 11:14:05;;;;;;;;;;;;;;;22.93;31.33;97539.81;4925008;29;1492;-78
2022/08/19 11:16:32;;;;;;;;;;;;;;;22.92;31.00;97541.06;4926949;29;1524;-78
2022/08/19 11:19:00;;;;;;;;;;;;;;;22.81;31.40;97545.09;4930588;29;1521;-78
2022/08/19 11:21:26;;;;;;;;;;;;;;;22.73;31.50;97537.31;4923427;29;1562;-78
2022/08/19 11:23:52;;;;;;;;;;;;;;;22.74;31.18;97536.88;4928495;29;1981;-77
2022/08/19 11:26:18;;;;;;;;;;;;;;;22.72;31.24;97525.19;4919001;29;1498;-77
2022/08/19 11:28:43;;;;;;;;;;;;;;;22.77;31.08;97527.41;4931062;29;1580;-76
2022/08/19 11:31:12;;;;;;;;;;;;;;;22.61;31.35;97531.25;4925036;29;1603;-77
2022/08/19 11:33:37;;;;;;;;;;;;;;;22.95;30.69;97521.09;4911311;29;1562;-78
2022/08/19 11:36:03;;;;;;;;;;;;;;;22.85;31.27;97522.25;4885489;29;1697;-79
2022/08/19 11:38:29;;;;;;;;;;;;;;;22.77;31.03;97515.28;4889518;29;1505;-78
2022/08/19 11:40:55;;;;;;;;;;;;;;;22.74;31.19;97511.34;4870531;29;1492;-79
2022/08/19 11:43:20;;;;;;;;;;;;;;;22.84;31.06;97510.09;4869736;29;1903;-78
2022/08/19 11:45:48;;;;;;;;;;;;;;;22.57;31.47;97524.13;4869672;29;1470;-77
2022/08/19 11:48:13;;;;;;;;;;;;;;;22.74;31.51;97513.38;4867382;29;1750;-78
2022/08/19 11:50:41;;;;;;;;;;;;;;;22.86;31.10;97518.97;4875189;29;1605;-77
2022/08/19 11:53:06;;;;;;;;;;;;;;;22.53;31.47;97517.81;4915212;29;1524;-77
2022/08/19 11:55:31;;;;;;;;;;;;;;;22.90;31.21;97512.38;4920536;29;955;-78
2022/08/19 11:57:57;;;;;;;;;;;;;;;22.83;30.93;97519.88;4921102;29;1056;-78
2022/08/19 12:00:23;;;;;;;;;;;;;;;22.78;31.20;97511.19;4920780;29;963;-78
2022/08/19 12:02:48;;;;;;;;;;;;;;;22.92;30.93;97495.69;4920139;29;1987;-78
2022/08/19 12:05:14;;;;;;;;;;;;;;;22.98;30.88;97503.13;4920706;29;927;-78
2022/08/19 12:07:40;;;;;;;;;;;;;;;22.70;31.27;97504.22;4949232;29;1035;-78
2022/08/19 12:10:06;;;;;;;;;;;;;;;22.78;31.07;97502.66;4958638;29;1003;-78
2022/08/19 12:12:31;;;;;;;;;;;;;;;22.88;31.00;97502.28;4989588;28;911;-77
2022/08/19 12:14:58;;;;;;;;;;;;;;;22.88;30.91;97502.28;4999551;28;843;-78
2022/08/19 12:17:24;;;;;;;;;;;;;;;23.01;30.55;97513.53;5000100;28;1030;-78
2022/08/19 12:19:50;;;;;;;;;;;;;;;23.02;30.48;97514.31;4999736;28;905;-77
2022/08/19 12:22:15;;;;;;;;;;;;;;;23.02;30.52;97511.50;4999830;28;933;-78
2022/08/19 12:24:41;;;;;;;;;;;;;;;22.77;30.88;97499.06;5016732;28;1910;-77
2022/08/19 12:27:06;;;;;;;;;;;;;;;22.71;31.15;97502.97;5018950;28;891;-77
2022/08/19 12:29:32;;;;;;;;;;;;;;;22.65;31.12;97510.50;5019037;28;950;-77
2022/08/19 12:32:01;;;;;;;;;;;;;;;22.81;30.46;97502.53;5019107;28;966;-78
2022/08/19 12:34:30;;;;;;;;;;;;;;;22.64;31.00;97518.22;5001156;28;830;-78
2022/08/19 12:36:57;;;;;;;;;;;;;;;22.85;30.40;97516.59;5001362;28;907;-78
2022/08/19 12:39:22;;;;;;;;;;;;;;;22.69;30.51;97517.63;4996990;28;1073;-77
2022/08/19 12:41:48;;;;;;;;;;;;;;;22.75;30.45;97524.25;4957773;29;999;-78
2022/08/19 12:44:14;;;;;;;;;;;;;;;22.76;30.49;97505.97;4958129;29;1911;-78
2022/08/19 12:46:39;;;;;;;;;;;;;;;22.87;30.01;97509.19;4919424;29;896;-77
2022/08/19 12:49:05;;;;;;;;;;;;;;;22.75;30.24;97512.91;4904001;29;933;-78
2022/08/19 12:51:31;;;;;;;;;;;;;;;22.73;30.19;97504.06;4919435;29;1047;-78
2022/08/19 12:53:56;;;;;;;;;;;;;;;22.62;30.27;97498.03;4884882;29;945;-78
2022/08/19 12:56:22;;;;;;;;;;;;;;;22.84;30.09;97484.56;4900545;29;965;-77
2022/08/19 12:58:47;;;;;;;;;;;;;;;22.87;30.16;97492.16;4900726;29;930;-78
2022/08/19 13:01:14;;;;;;;;;;;;;;;22.79;30.27;97501.41;4881627;29;1021;-78
2022/08/19 13:03:39;;;;;;;;;;;;;;;22.81;30.16;97502.53;4866020;29;1990;-77
2022/08/19 13:06:05;;;;;;;;;;;;;;;22.67;30.42;97514.44;4881933;29;936;-78
2022/08/19 13:08:30;;;;;;;;;;;;;;;22.72;30.14;97519.50;4881641;29;986;-77
2022/08/19 13:10:56;;;;;;;;;;;;;;;22.75;30.19;97531.97;4881727;29;957;-78
2022/08/19 13:13:21;;;;;;;;;;;;;;;22.64;30.27;97529.56;4909514;29;944;-78
2022/08/19 13:15:47;;;;;;;;;;;;;;;22.73;30.27;97521.09;4900801;29;950;-77